Time;durP1;ratioP1;P1;durP2;ratioP2;P2;SDS_P1;SDS_P2;PMS_P1;PMS_P2;Temp;Humidity;BMP_temperature;BMP_pressure;BME280_temperature;BME280_humidity;BME280_pressure;Samples;Min_cycle;Max_cycle;Signal;HPM_P1;HPM_P2
2021/03/23 00:01:10;;;;;;;16.58;10.27;;;1.60;99.90;;;;;;4977985;28;20027;-71
2021/03/23 00:03:48;;;;;;;29.23;14.48;;;1.60;99.90;;;;;;4977827;28;20039;-73
2021/03/23 00:06:21;;;;;;;22.15;11.05;;;1.60;99.90;;;;;;4977703;28;20085;-69
2021/03/23 00:08:50;;;;;;;16.70;9.20;;;1.60;99.90;;;;;;4980170;28;20026;-68
2021/03/23 00:11:25;;;;;;;18.70;10.32;;;1.60;99.90;;;;;;4978793;28;20023;-70
2021/03/23 00:13:52;;;;;;;16.30;9.80;;;1.60;99.90;;;;;;4978144;28;20469;-73
2021/03/23 00:16:22;;;;;;;17.38;10.15;;;1.60;99.90;;;;;;4978245;28;20038;-69
2021/03/23 00:18:48;;;;;;;19.83;11.18;;;1.50;99.90;;;;;;4978055;28;20030;-70
2021/03/23 00:21:15;;;;;;;13.88;7.93;;;1.50;99.90;;;;;;4980114;28;20029;-72
2021/03/23 00:23:42;;;;;;;12.85;7.65;;;1.50;99.90;;;;;;4979432;28;20073;-69
2021/03/23 00:26:10;;;;;;;13.02;6.95;;;1.50;99.80;;;;;;4979713;28;20467;-69
2021/03/23 00:28:36;;;;;;;12.57;7.50;;;1.50;99.50;;;;;;4981136;28;20067;-72
2021/03/23 00:31:02;;;;;;;20.27;10.40;;;1.50;99.90;;;;;;4978734;28;20408;-69
2021/03/23 00:33:28;;;;;;;23.45;14.07;;;1.50;99.90;;;;;;4980712;28;20019;-73
2021/03/23 00:36:01;;;;;;;26.13;14.32;;;1.50;99.90;;;;;;4984443;28;20054;-69
2021/03/23 00:38:32;;;;;;;23.33;13.25;;;1.40;99.90;;;;;;4985121;28;20030;-73
2021/03/23 00:40:58;;;;;;;23.83;13.85;;;1.40;99.70;;;;;;4984567;28;20038;-69
2021/03/23 00:43:24;;;;;;;21.05;12.93;;;1.40;99.90;;;;;;4984363;28;20019;-72
2021/03/23 00:45:50;;;;;;;27.83;15.48;;;1.40;99.90;;;;;;4983836;28;20022;-71
2021/03/23 00:48:18;;;;;;;23.50;14.20;;;1.40;99.40;;;;;;4981982;28;20082;-68
2021/03/23 00:50:44;;;;;;;26.38;16.70;;;1.40;99.50;;;;;;4981776;28;20074;-68
2021/03/23 00:53:11;;;;;;;26.15;15.23;;;1.40;99.70;;;;;;4980187;28;20019;-68
2021/03/23 00:55:37;;;;;;;31.60;18.08;;;1.40;99.70;;;;;;4981506;28;20019;-68
2021/03/23 00:58:03;;;;;;;35.38;19.60;;;1.30;99.40;;;;;;4982514;28;20369;-69
2021/03/23 01:00:30;;;;;;;33.85;18.88;;;1.30;99.50;;;;;;4978155;28;20031;-68
2021/03/23 01:02:56;;;;;;;34.58;20.48;;;1.30;99.70;;;;;;4982444;28;20051;-68
2021/03/23 01:05:29;;;;;;;28.75;17.27;;;1.30;99.10;;;;;;4984510;28;20023;-72
2021/03/23 01:07:55;;;;;;;26.83;15.88;;;1.30;99.60;;;;;;4983226;28;20023;-69
2021/03/23 01:10:24;;;;;;;23.92;14.10;;;1.30;99.20;;;;;;4981801;28;20030;-73
2021/03/23 01:12:50;;;;;;;24.50;13.00;;;1.30;99.60;;;;;;4982332;28;20023;-68
2021/03/23 01:15:19;;;;;;;23.00;13.43;;;1.20;99.80;;;;;;4980756;28;20503;-72
2021/03/23 01:17:45;;;;;;;23.60;13.07;;;1.20;99.80;;;;;;4982709;28;20026;-70
2021/03/23 01:20:14;;;;;;;19.52;11.63;;;1.20;99.60;;;;;;4982985;28;20023;-73
2021/03/23 01:22:40;;;;;;;19.83;11.55;;;1.20;99.80;;;;;;4983351;28;20033;-72
2021/03/23 01:25:07;;;;;;;26.67;13.55;;;1.30;99.50;;;;;;4980856;28;20059;-73
2021/03/23 01:27:33;;;;;;;21.95;11.23;;;1.20;99.00;;;;;;4982223;28;20023;-74
2021/03/23 01:29:59;;;;;;;21.70;11.88;;;1.20;99.30;;;;;;4982853;28;20026;-72
2021/03/23 01:32:25;;;;;;;22.85;12.65;;;1.20;99.40;;;;;;4984233;28;20015;-73
2021/03/23 01:34:51;;;;;;;21.23;11.95;;;1.10;99.20;;;;;;4981785;28;20026;-73
2021/03/23 01:37:18;;;;;;;20.92;13.35;;;1.10;99.50;;;;;;4983602;28;20019;-72
2021/03/23 01:39:44;;;;;;;20.67;12.15;;;1.10;99.10;;;;;;4982548;28;20018;-68
2021/03/23 01:42:12;;;;;;;25.60;13.52;;;1.10;99.60;;;;;;4981915;28;20019;-68
2021/03/23 01:44:40;;;;;;;25.42;14.55;;;1.00;99.40;;;;;;4980711;28;20049;-73
2021/03/23 01:47:06;;;;;;;24.42;11.90;;;1.00;99.30;;;;;;4978863;28;20077;-68
2021/03/23 01:49:40;;;;;;;31.77;14.88;;;1.00;99.40;;;;;;4982388;28;20011;-73
2021/03/23 01:52:12;;;;;;;23.47;11.07;;;1.00;99.80;;;;;;4980471;28;20033;-73
2021/03/23 01:54:50;;;;;;;22.52;10.15;;;1.00;99.40;;;;;;4981349;28;20256;-73
2021/03/23 01:57:17;;;;;;;25.77;11.45;;;1.00;99.30;;;;;;4981024;28;20493;-68
2021/03/23 01:59:51;;;;;;;24.77;11.30;;;1.00;99.40;;;;;;4981092;28;20026;-72
2021/03/23 02:02:18;;;;;;;;;;;0.90;99.20;;;;;;4983978;28;20031;-69
2021/03/23 02:04:44;;;;;;;25.75;11.85;;;0.90;99.60;;;;;;4981359;28;19909;-72
2021/03/23 02:07:10;;;;;;;19.23;10.70;;;0.90;99.10;;;;;;4981058;28;20030;-72
2021/03/23 02:09:37;;;;;;;29.60;15.05;;;1.00;99.90;;;;;;4983063;28;20038;-69
2021/03/23 02:12:07;;;;;;;28.10;14.07;;;0.90;99.50;;;;;;4982251;28;20097;-73
2021/03/23 02:14:37;;;;;;;23.60;11.57;;;1.00;99.50;;;;;;4981750;28;20025;-73
2021/03/23 02:17:32;;;;;;;34.70;16.30;;;1.00;99.00;;;;;;4982242;28;20019;-71
2021/03/23 02:19:59;;;;;;;;;;;1.00;98.40;;;;;;4977241;28;20093;-67
2021/03/23 02:22:32;;;;;;;29.27;12.75;;;0.90;98.40;;;;;;4980233;28;20082;-72
2021/03/23 02:24:59;;;;;;;22.52;11.73;;;1.00;98.50;;;;;;4980887;28;20062;-71
2021/03/23 02:27:27;;;;;;;32.05;15.60;;;1.00;98.10;;;;;;4981140;28;20046;-69
2021/03/23 02:29:59;;;;;;;22.52;11.10;;;0.90;98.10;;;;;;4981031;28;20022;-69
2021/03/23 02:32:25;;;;;;;21.17;11.50;;;0.90;98.90;;;;;;4982347;28;20027;-71
2021/03/23 02:34:52;;;;;;;24.90;12.68;;;0.90;98.80;;;;;;4981188;28;20031;-72
2021/03/23 02:37:18;;;;;;;21.50;11.10;;;0.90;98.50;;;;;;4979516;28;20031;-72
2021/03/23 02:39:44;;;;;;;25.25;12.32;;;0.90;99.00;;;;;;4997378;28;20084;-71
2021/03/23 02:42:11;;;;;;;23.77;11.68;;;0.80;98.50;;;;;;4981783;28;20098;-72
2021/03/23 02:44:43;;;;;;;17.98;9.35;;;0.80;98.20;;;;;;4979837;28;20027;-72
2021/03/23 02:47:10;;;;;;;35.35;17.63;;;0.80;99.00;;;;;;4980171;28;20031;-69
2021/03/23 02:49:36;;;;;;;27.40;13.30;;;0.80;98.80;;;;;;4980987;28;20081;-72
2021/03/23 02:52:03;;;;;;;25.23;12.48;;;0.80;98.70;;;;;;4980696;28;20441;-68
2021/03/23 02:54:30;;;;;;;16.42;8.48;;;0.80;98.60;;;;;;4979731;28;20102;-69
2021/03/23 02:56:55;;;;;;;18.90;9.90;;;0.70;98.50;;;;;;4978454;28;20023;-71
2021/03/23 02:59:21;;;;;;;18.75;9.95;;;0.70;99.20;;;;;;4977626;28;20076;-72
2021/03/23 03:01:47;;;;;;;17.65;9.75;;;0.70;99.00;;;;;;4981571;28;20026;-68
2021/03/23 03:04:13;;;;;;;15.13;9.13;;;0.70;99.10;;;;;;4981600;28;20035;-72
2021/03/23 03:06:39;;;;;;;18.80;9.57;;;0.60;99.30;;;;;;4981419;28;20058;-69
2021/03/23 03:09:06;;;;;;;19.15;10.50;;;0.60;99.80;;;;;;4981469;28;20026;-72
2021/03/23 03:11:33;;;;;;;18.98;10.70;;;0.60;99.50;;;;;;4980032;28;20050;-72
2021/03/23 03:13:59;;;;;;;21.92;11.57;;;0.60;99.30;;;;;;4979781;28;20027;-70
2021/03/23 03:16:25;;;;;;;16.88;9.65;;;0.50;99.20;;;;;;4995195;28;20056;-68
2021/03/23 03:18:51;;;;;;;15.57;9.32;;;0.50;99.30;;;;;;4980041;28;20015;-72
2021/03/23 03:21:17;;;;;;;16.65;8.68;;;0.50;99.70;;;;;;4978822;28;20030;-72
2021/03/23 03:23:43;;;;;;;20.30;10.93;;;0.50;99.80;;;;;;4979952;28;20477;-68
2021/03/23 03:26:09;;;;;;;11.75;7.03;;;0.50;99.50;;;;;;4978467;28;20074;-70
2021/03/23 03:28:36;;;;;;;13.25;7.32;;;0.50;99.80;;;;;;4994994;28;20031;-70
2021/03/23 03:31:06;;;;;;;15.25;8.90;;;0.50;99.70;;;;;;4978357;28;20027;-72
2021/03/23 03:33:32;;;;;;;11.73;7.07;;;0.40;99.10;;;;;;4980814;28;20488;-72
2021/03/23 03:35:58;;;;;;;16.77;9.45;;;0.50;99.30;;;;;;4979274;28;20027;-70
2021/03/23 03:38:26;;;;;;;30.55;17.05;;;0.40;99.30;;;;;;4980636;28;20373;-72
2021/03/23 03:40:58;;;;;;;24.65;13.05;;;0.40;99.20;;;;;;4979943;28;20023;-71
2021/03/23 03:43:27;;;;;;;29.63;16.70;;;0.30;99.60;;;;;;4979413;28;20034;-72
2021/03/23 03:45:54;;;;;;;31.50;16.30;;;0.40;99.90;;;;;;4981590;28;20037;-71
2021/03/23 03:48:21;;;;;;;27.88;15.70;;;0.40;99.90;;;;;;4978915;28;20481;-72
2021/03/23 03:50:47;;;;;;;34.05;20.10;;;0.40;99.60;;;;;;4977904;28;20023;-69
2021/03/23 03:53:13;;;;;;;22.88;13.63;;;0.40;99.90;;;;;;4978120;28;20011;-70
2021/03/23 03:55:43;;;;;;;20.88;11.27;;;0.40;99.90;;;;;;4979075;28;20023;-69
2021/03/23 03:58:10;;;;;;;16.65;10.93;;;0.40;99.50;;;;;;4980192;28;20018;-71
2021/03/23 04:00:37;;;;;;;19.65;11.75;;;0.30;99.40;;;;;;4980542;28;20022;-72
2021/03/23 04:03:07;;;;;;;19.38;11.90;;;0.30;99.60;;;;;;4981626;28;20035;-69
2021/03/23 04:05:38;;;;;;;25.23;15.75;;;0.40;99.80;;;;;;4980065;28;20027;-72
2021/03/23 04:08:06;;;;;;;22.65;15.52;;;0.30;99.90;;;;;;4980708;28;20066;-71
2021/03/23 04:10:32;;;;;;;20.15;12.20;;;0.30;99.40;;;;;;4979060;28;20031;-71
2021/03/23 04:12:58;;;;;;;16.92;11.52;;;0.30;99.90;;;;;;4980121;28;20029;-72
2021/03/23 04:15:34;;;;;;;14.73;9.52;;;0.30;99.60;;;;;;4978795;28;20029;-71
2021/03/23 04:18:00;;;;;;;15.98;10.23;;;0.30;99.90;;;;;;4980296;28;20023;-71
2021/03/23 04:20:27;;;;;;;13.18;7.63;;;0.40;99.90;;;;;;4980174;28;20033;-70
2021/03/23 04:22:54;;;;;;;13.75;8.02;;;0.30;99.40;;;;;;4977028;28;20053;-69
2021/03/23 04:25:23;;;;;;;19.50;11.40;;;0.30;99.90;;;;;;4977273;28;20385;-72
2021/03/23 04:27:51;;;;;;;17.92;10.93;;;0.40;99.90;;;;;;4979005;28;20081;-69
2021/03/23 04:30:18;;;;;;;16.20;11.55;;;0.20;99.40;;;;;;4978746;28;20066;-69
2021/03/23 04:32:45;;;;;;;20.75;13.10;;;0.30;99.70;;;;;;4980556;28;20023;-72
2021/03/23 04:35:43;;;;;;;23.17;13.98;;;0.30;99.80;;;;;;4980472;28;20030;-70
2021/03/23 04:38:11;;;;;;;25.08;15.73;;;0.30;99.90;;;;;;4968956;28;20038;-72
2021/03/23 04:40:37;;;;;;;24.05;17.52;;;0.30;99.90;;;;;;4979237;28;20006;-72
2021/03/23 04:43:05;;;;;;;24.67;15.10;;;0.20;99.60;;;;;;4977345;28;20027;-67
2021/03/23 04:45:31;;;;;;;21.95;14.50;;;0.30;99.90;;;;;;4977715;28;20477;-68
2021/03/23 04:47:57;;;;;;;22.95;14.50;;;0.30;99.90;;;;;;4974512;28;20050;-72
2021/03/23 04:50:23;;;;;;;23.85;15.68;;;0.30;99.90;;;;;;4977759;28;20023;-68
2021/03/23 04:52:49;;;;;;;25.35;15.90;;;0.20;99.40;;;;;;4975725;28;20031;-69
2021/03/23 04:55:16;;;;;;;24.98;16.30;;;0.30;99.70;;;;;;4975283;28;20477;-72
2021/03/23 04:57:42;;;;;;;29.00;16.80;;;0.30;99.90;;;;;;4976271;28;20130;-73
2021/03/23 05:00:11;;;;;;;23.38;15.20;;;0.30;99.30;;;;;;4978358;28;20035;-72
2021/03/23 05:02:37;;;;;;;23.70;14.98;;;0.30;99.70;;;;;;4977234;28;20031;-69
2021/03/23 05:05:05;;;;;;;19.50;12.38;;;0.30;99.90;;;;;;4978273;28;20420;-71
2021/03/23 05:07:31;;;;;;;19.48;13.07;;;0.30;99.50;;;;;;4978736;28;20034;-71
2021/03/23 05:09:57;;;;;;;41.67;23.08;;;0.20;99.70;;;;;;4979636;28;20023;-69
2021/03/23 05:12:23;;;;;;;184.13;96.28;;;0.20;99.60;;;;;;4979187;28;20049;-72
2021/03/23 05:14:48;;;;;;;189.23;104.53;;;0.30;99.90;;;;;;4979414;28;20011;-70
2021/03/23 05:17:15;;;;;;;156.35;94.43;;;0.40;99.90;;;;;;4981721;28;20488;-68
2021/03/23 05:19:41;;;;;;;127.57;81.65;;;0.40;99.80;;;;;;4981291;28;20027;-70
2021/03/23 05:22:07;;;;;;;41.88;25.25;;;0.50;99.90;;;;;;4982145;28;20416;-68
2021/03/23 05:24:33;;;;;;;27.42;16.38;;;0.50;99.60;;;;;;4983333;28;20027;-67
2021/03/23 05:26:59;;;;;;;44.55;22.23;;;0.50;99.50;;;;;;4982671;28;20027;-72
2021/03/23 05:29:25;;;;;;;60.25;33.45;;;0.50;99.90;;;;;;4983889;28;20059;-69
2021/03/23 05:31:51;;;;;;;35.47;19.75;;;0.50;99.90;;;;;;4980166;28;20031;-67
2021/03/23 05:34:17;;;;;;;42.78;19.23;;;0.50;99.50;;;;;;4980373;28;20023;-68
2021/03/23 05:36:44;;;;;;;36.88;18.70;;;0.50;99.30;;;;;;4981171;28;20023;-68
2021/03/23 05:39:12;;;;;;;31.95;17.15;;;0.60;99.40;;;;;;4980196;28;20033;-72
2021/03/23 05:41:57;;;;;;;34.40;18.95;;;0.60;99.30;;;;;;4981250;28;20428;-75
2021/03/23 05:44:44;;;;;;;29.63;16.35;;;0.60;99.10;;;;;;4978161;28;20393;-68
2021/03/23 05:47:19;;;;;;;24.35;14.00;;;0.70;99.30;;;;;;4981066;28;20023;-74
2021/03/23 05:50:20;;;;;;;34.35;18.02;;;0.70;99.50;;;;;;4980202;28;20043;-70
2021/03/23 05:53:04;;;;;;;81.80;38.45;;;0.80;99.50;;;;;;4924944;29;20172;-75
2021/03/23 05:55:43;;;;;;;119.47;61.97;;;0.80;98.80;;;;;;4922076;29;20028;-71
2021/03/23 05:58:23;;;;;;;29.65;16.02;;;0.90;99.10;;;;;;4941970;29;20036;-70
2021/03/23 06:01:29;;;;;;;101.40;41.65;;;0.90;99.10;;;;;;4924892;29;20148;-71
2021/03/23 06:04:14;;;;;;;150.45;65.55;;;1.00;99.20;;;;;;4940722;29;20064;-72
2021/03/23 06:07:01;;;;;;;124.07;57.88;;;1.10;98.70;;;;;;4942264;29;20202;-70
2021/03/23 06:09:33;;;;;;;33.63;16.70;;;1.20;98.80;;;;;;4942285;29;20047;-68
2021/03/23 06:12:12;;;;;;;102.93;46.33;;;1.30;99.10;;;;;;4943793;29;20410;-71
2021/03/23 06:15:23;;;;;;;98.78;41.75;;;1.30;99.20;;;;;;4943125;29;20035;-72
2021/03/23 06:17:58;;;;;;;21.92;11.02;;;1.40;99.00;;;;;;4924272;29;20129;-71
2021/03/23 06:20:41;;;;;;;58.90;25.98;;;1.50;99.10;;;;;;4943514;29;20028;-70
2021/03/23 06:23:50;;;;;;;24.38;13.30;;;1.50;98.20;;;;;;4940860;29;20135;-72
2021/03/23 06:26:37;;;;;;;57.15;27.40;;;1.60;98.70;;;;;;4941190;29;20075;-69
2021/03/23 06:29:03;;;;;;;45.17;21.10;;;1.70;98.70;;;;;;4957691;28;20511;-72
2021/03/23 06:31:50;;;;;;;111.50;49.85;;;1.80;98.50;;;;;;4982235;28;20023;-69
2021/03/23 06:34:27;;;;;;;40.13;16.63;;;1.90;97.80;;;;;;4983089;28;20026;-72
2021/03/23 06:36:54;;;;;;;32.13;14.20;;;1.90;97.50;;;;;;4981733;28;20030;-72
2021/03/23 06:39:21;;;;;;;50.58;25.40;;;1.90;97.70;;;;;;4981743;28;20650;-72
2021/03/23 06:42:02;;;;;;;50.97;26.25;;;2.00;98.00;;;;;;4980729;28;20118;-70
2021/03/23 06:44:34;;;;;;;91.68;41.45;;;2.10;97.30;;;;;;4981731;28;20086;-69
2021/03/23 06:47:00;;;;;;;52.80;28.45;;;2.20;97.90;;;;;;4978693;28;20027;-69
2021/03/23 06:49:31;;;;;;;29.45;16.20;;;2.20;97.60;;;;;;4981885;28;20074;-68
2021/03/23 06:52:00;;;;;;;49.63;25.67;;;2.30;97.10;;;;;;4980284;28;20118;-68
2021/03/23 06:54:35;;;;;;;51.65;26.83;;;2.40;97.00;;;;;;4976474;28;20019;-72
2021/03/23 06:57:05;;;;;;;;;;;2.40;96.10;;;;;;4976976;28;20019;-68
2021/03/23 06:59:53;;;;;;;103.22;48.17;;;2.40;96.00;;;;;;4976906;28;19906;-68
2021/03/23 07:02:36;;;;;;;60.50;32.20;;;2.50;95.60;;;;;;4978880;28;20039;-74
2021/03/23 07:05:20;;;;;;;62.85;36.95;;;2.50;95.90;;;;;;4986590;28;20037;-72
2021/03/23 07:07:55;;;;;;;56.95;25.05;;;2.70;95.70;;;;;;4998665;28;20053;-71
2021/03/23 07:10:29;;;;;;;44.28;19.00;;;2.80;96.40;;;;;;4999140;28;20101;-72
2021/03/23 07:12:55;;;;;;;80.18;35.35;;;2.80;96.10;;;;;;4999434;28;20034;-73
2021/03/23 07:15:27;;;;;;;78.97;35.97;;;3.00;96.60;;;;;;4995760;28;20488;-71
2021/03/23 07:17:57;;;;;;;153.38;62.75;;;3.20;97.20;;;;;;4996928;28;20033;-73
2021/03/23 07:20:29;;;;;;;30.63;16.02;;;3.20;95.00;;;;;;4995446;28;20019;-68
2021/03/23 07:22:56;;;;;;;94.97;43.95;;;3.20;95.20;;;;;;4996489;28;20034;-69
2021/03/23 07:25:42;;;;;;;65.47;30.23;;;3.30;96.50;;;;;;4995408;28;20046;-69
2021/03/23 07:28:34;;;;;;;97.78;44.65;;;3.40;95.50;;;;;;4997023;28;20029;-69
2021/03/23 07:31:10;;;;;;;26.75;14.85;;;3.40;94.60;;;;;;4999737;28;20464;-69
2021/03/23 07:34:07;;;;;;;75.72;33.55;;;3.60;96.40;;;;;;5002008;28;20026;-69
2021/03/23 07:36:47;;;;;;;27.27;15.60;;;3.80;96.40;;;;;;5001768;28;20027;-69
2021/03/23 07:39:38;;;;;;;17.20;10.82;;;3.90;96.20;;;;;;5002426;28;20033;-69
2021/03/23 07:42:28;;;;;;;15.10;9.18;;;3.90;95.40;;;;;;5000865;28;20038;-71
2021/03/23 07:44:57;;;;;;;19.35;10.70;;;4.10;96.10;;;;;;5016727;28;20062;-68
2021/03/23 07:47:48;;;;;;;28.02;15.30;;;4.10;96.00;;;;;;4987564;28;20149;-68
2021/03/23 07:50:33;;;;;;;20.52;12.15;;;4.30;96.30;;;;;;4985752;28;20038;-70
2021/03/23 07:53:19;;;;;;;22.70;12.70;;;4.40;97.10;;;;;;4979830;28;20114;-69
2021/03/23 07:55:48;;;;;;;17.00;10.40;;;4.50;95.90;;;;;;4971775;28;20086;-70
2021/03/23 07:58:35;;;;;;;16.27;9.63;;;4.70;96.10;;;;;;4978807;28;20054;-68
2021/03/23 08:01:41;;;;;;;16.42;9.07;;;4.80;96.00;;;;;;4976939;28;20050;-69
2021/03/23 08:04:19;;;;;;;12.40;7.43;;;5.20;97.40;;;;;;4992610;28;20034;-73
2021/03/23 08:06:48;;;;;;;14.05;7.90;;;5.20;94.20;;;;;;4999204;28;20065;-68
2021/03/23 08:09:23;;;;;;;12.98;7.60;;;5.30;94.50;;;;;;4997979;28;20030;-73
2021/03/23 08:12:13;;;;;;;10.75;7.15;;;5.30;93.50;;;;;;4998864;28;20046;-70
2021/03/23 08:14:58;;;;;;;17.00;10.68;;;5.70;94.90;;;;;;4997855;28;20049;-71
2021/03/23 08:17:29;;;;;;;11.63;8.25;;;5.80;93.80;;;;;;4997380;28;20026;-69
2021/03/23 08:20:31;;;;;;;11.85;7.32;;;6.00;92.20;;;;;;4998258;28;20030;-69
2021/03/23 08:23:31;;;;;;;11.63;7.97;;;5.70;92.50;;;;;;4988271;28;20405;-69
2021/03/23 08:26:10;;;;;;;16.05;9.95;;;6.10;94.20;;;;;;4998742;28;20475;-73
2021/03/23 08:29:00;;;;;;;12.10;7.38;;;6.30;91.80;;;;;;4998785;28;20114;-72
2021/03/23 08:31:46;;;;;;;17.23;10.63;;;6.40;91.80;;;;;;4998171;28;20014;-72
2021/03/23 08:34:30;;;;;;;13.70;7.90;;;6.40;90.30;;;;;;4996472;28;20080;-70
2021/03/23 08:37:15;;;;;;;19.67;12.10;;;6.50;90.40;;;;;;4980368;28;20026;-69
2021/03/23 08:40:02;;;;;;;11.35;7.18;;;6.80;91.50;;;;;;4983254;28;20133;-68
2021/03/23 08:42:29;;;;;;;7.25;5.40;;;6.90;90.30;;;;;;4980494;28;20027;-68
2021/03/23 08:45:03;;;;;;;9.73;5.95;;;7.00;90.00;;;;;;4983472;28;20406;-69
2021/03/23 08:47:50;;;;;;;10.10;6.47;;;7.20;91.60;;;;;;4985345;28;20417;-68
2021/03/23 08:50:23;;;;;;;8.57;5.90;;;7.60;89.90;;;;;;4999743;28;20019;-68
2021/03/23 08:52:54;;;;;;;11.07;5.85;;;7.50;85.70;;;;;;4985733;28;20023;-69
2021/03/23 08:55:31;;;;;;;22.65;12.43;;;7.70;86.10;;;;;;4984744;28;20026;-69
2021/03/23 08:58:05;;;;;;;44.65;21.90;;;7.60;82.40;;;;;;4988181;28;20031;-70
2021/03/23 09:00:53;;;;;;;14.20;7.55;;;7.80;82.80;;;;;;4985342;28;20018;-70
2021/03/23 09:03:18;;;;;;;31.35;15.95;;;7.70;85.00;;;;;;4985208;28;20043;-69
2021/03/23 09:05:50;;;;;;;22.75;11.65;;;7.70;82.10;;;;;;4988656;28;20387;-69
2021/03/23 09:08:28;;;;;;;39.58;19.40;;;8.10;89.10;;;;;;4990095;28;20481;-70
2021/03/23 09:10:58;;;;;;;32.85;15.93;;;8.10;84.20;;;;;;4986560;28;20372;-69
2021/03/23 09:13:45;;;;;;;45.35;22.90;;;8.10;87.00;;;;;;4990914;28;20030;-72
2021/03/23 09:16:11;;;;;;;26.20;12.93;;;8.10;85.80;;;;;;4969795;28;20058;-71
2021/03/23 09:19:00;;;;;;;19.38;12.05;;;8.10;79.10;;;;;;4999250;28;20026;-74
2021/03/23 09:21:46;;;;;;;71.28;34.58;;;;;;;;;;4999821;28;20022;-71
2021/03/23 09:24:36;;;;;;;26.40;14.73;;;7.70;80.40;;;;;;5001228;28;20038;-71
2021/03/23 09:27:24;;;;;;;15.05;9.55;;;8.20;83.20;;;;;;4999452;28;20038;-70
2021/03/23 09:29:50;;;;;;;39.40;21.50;;;8.40;75.70;;;;;;5001746;28;20084;-70
2021/03/23 09:32:28;;;;;;;47.83;22.27;;;8.50;80.60;;;;;;5000738;28;20085;-71
2021/03/23 09:35:06;;;;;;;17.98;10.38;;;7.90;81.00;;;;;;5015158;28;20046;-69
2021/03/23 09:37:38;;;;;;;34.25;15.18;;;7.70;78.50;;;;;;4998336;28;20109;-72
2021/03/23 09:40:20;;;;;;;31.27;14.43;;;7.80;80.80;;;;;;5000183;28;20002;-71
2021/03/23 09:42:53;;;;;;;34.15;17.48;;;8.10;78.30;;;;;;5001221;28;20038;-71
2021/03/23 09:45:37;;;;;;;13.05;8.05;;;8.50;81.60;;;;;;5001200;28;20030;-71
2021/03/23 09:48:24;;;;;;;13.38;8.10;;;8.80;77.90;;;;;;5001552;28;20050;-71
2021/03/23 09:50:52;;;;;;;17.95;9.52;;;8.90;79.90;;;;;;5001894;28;20125;-70
2021/03/23 09:53:25;;;;;;;22.55;10.88;;;9.30;77.40;;;;;;5001809;28;20018;-75
2021/03/23 09:55:51;;;;;;;18.40;10.88;;;8.80;74.10;;;;;;5000831;28;20022;-71
2021/03/23 09:58:25;;;;;;;15.88;10.60;;;8.60;79.80;;;;;;5002945;28;20026;-70
2021/03/23 10:00:52;;;;;;;15.63;9.68;;;8.30;77.30;;;;;;5000942;28;20041;-71
2021/03/23 10:03:34;;;;;;;17.10;10.45;;;8.50;78.80;;;;;;4997529;28;20037;-71
2021/03/23 10:06:07;;;;;;;22.52;14.27;;;8.90;74.10;;;;;;4999978;28;20032;-70
2021/03/23 10:08:35;;;;;;;28.17;16.83;;;9.30;76.50;;;;;;4998965;28;20033;-69
2021/03/23 10:11:07;;;;;;;19.65;13.25;;;8.40;68.20;;;;;;4999228;28;20018;-70
2021/03/23 10:13:33;;;;;;;42.70;24.75;;;8.20;76.60;;;;;;4999322;28;20084;-70
2021/03/23 10:16:04;;;;;;;20.10;12.63;;;8.70;77.20;;;;;;5000828;28;20018;-67
2021/03/23 10:18:39;;;;;;;19.17;11.98;;;8.60;74.50;;;;;;4998893;28;20354;-68
2021/03/23 10:21:11;;;;;;;16.45;10.90;;;8.70;73.60;;;;;;4998849;28;20038;-70
2021/03/23 10:23:48;;;;;;;14.65;9.65;;;8.60;67.90;;;;;;5000212;28;20038;-70
2021/03/23 10:26:15;;;;;;;11.20;7.00;;;9.10;79.80;;;;;;4999126;28;20046;-69
2021/03/23 10:28:47;;;;;;;8.82;5.82;;;;;;;;;;5000470;28;20030;-69
2021/03/23 10:31:15;;;;;;;26.48;16.13;;;10.20;73.40;;;;;;5000455;28;20029;-70
2021/03/23 10:33:42;;;;;;;22.17;14.65;;;10.50;71.20;;;;;;4999372;28;20030;-69
2021/03/23 10:36:11;;;;;;;23.52;16.58;;;9.50;65.50;;;;;;4999235;28;20472;-68
2021/03/23 10:38:45;;;;;;;13.52;9.15;;;8.90;65.60;;;;;;5001474;28;20484;-69
2021/03/23 10:41:17;;;;;;;;;;;8.80;70.20;;;;;;5001715;28;20018;-72
2021/03/23 10:43:46;;;;;;;32.42;18.70;;;8.80;72.10;;;;;;5001185;28;19914;-70
2021/03/23 10:46:32;;;;;;;17.92;10.90;;;8.30;74.30;;;;;;4999981;28;20031;-71
2021/03/23 10:49:20;;;;;;;25.65;15.30;;;8.20;75.80;;;;;;5001177;28;20027;-70
2021/03/23 10:51:50;;;;;;;23.00;14.10;;;8.20;76.80;;;;;;5001529;28;20050;-71
2021/03/23 10:54:21;;;;;;;49.55;29.75;;;8.80;76.70;;;;;;5001337;28;20480;-69
2021/03/23 10:57:12;;;;;;;30.20;18.30;;;9.10;73.60;;;;;;5002512;28;20029;-65
2021/03/23 10:59:38;;;;;;;44.15;23.83;;;9.50;71.10;;;;;;4993550;28;20057;-70
2021/03/23 11:02:26;;;;;;;19.08;12.50;;;9.80;64.00;;;;;;4999968;28;20026;-72
2021/03/23 11:05:08;;;;;;;30.25;15.55;;;9.60;64.60;;;;;;4924842;29;20047;-71
2021/03/23 11:07:45;;;;;;;57.75;31.63;;;9.30;62.60;;;;;;4941037;29;20024;-71
2021/03/23 11:10:12;;;;;;;10.63;5.80;;;10.00;67.90;;;;;;4942004;29;20059;-73
2021/03/23 11:12:38;;;;;;;12.25;5.80;;;9.80;63.50;;;;;;4939982;29;20585;-71
2021/03/23 11:15:06;;;;;;;11.55;6.15;;;9.50;67.50;;;;;;4942005;29;20051;-67
2021/03/23 11:17:37;;;;;;;12.65;5.65;;;9.40;67.10;;;;;;4939731;29;20058;-74
2021/03/23 11:20:08;;;;;;;10.02;5.65;;;10.00;76.00;;;;;;4940920;29;20482;-71
2021/03/23 11:22:36;;;;;;;19.40;8.95;;;10.80;76.50;;;;;;4940567;29;20040;-71
2021/03/23 11:25:05;;;;;;;8.10;5.10;;;11.30;65.70;;;;;;4938347;29;20059;-70
2021/03/23 11:27:31;;;;;;;18.48;11.60;;;12.00;69.20;;;;;;4937191;29;20065;-68
2021/03/23 11:29:58;;;;;;;10.20;6.80;;;11.60;58.90;;;;;;4939481;28;20031;-68
2021/03/23 11:32:25;;;;;;;13.10;8.88;;;11.10;61.50;;;;;;4944569;28;20036;-71
2021/03/23 11:34:51;;;;;;;7.90;5.95;;;10.80;61.40;;;;;;4947579;28;20062;-71
2021/03/23 11:37:18;;;;;;;11.68;6.85;;;10.40;69.40;;;;;;4949472;29;20015;-71
2021/03/23 11:39:44;;;;;;;14.98;8.63;;;10.10;65.60;;;;;;4947220;29;20028;-72
2021/03/23 11:42:30;;;;;;;11.70;6.68;;;10.20;62.30;;;;;;4982988;28;20038;-68
2021/03/23 11:45:28;;;;;;;8.95;5.22;;;10.20;63.80;;;;;;5005699;28;20026;-71
2021/03/23 11:47:57;;;;;;;9.45;5.18;;;11.00;66.50;;;;;;5000070;28;20113;-69
2021/03/23 11:50:28;;;;;;;13.73;7.93;;;11.40;62.30;;;;;;4992749;28;20069;-70
2021/03/23 11:52:55;;;;;;;13.85;9.02;;;11.00;60.20;;;;;;4992422;28;20037;-71
2021/03/23 11:55:25;;;;;;;13.25;7.88;;;10.50;63.30;;;;;;4993692;28;20023;-72
2021/03/23 11:57:51;;;;;;;9.60;6.00;;;10.60;67.90;;;;;;4994015;28;20117;-70
2021/03/23 12:00:18;;;;;;;13.18;8.07;;;10.80;60.20;;;;;;4994167;28;20102;-71
2021/03/23 12:02:44;;;;;;;8.10;5.68;;;11.00;65.80;;;;;;4993894;28;20031;-72
2021/03/23 12:05:11;;;;;;;11.88;7.45;;;10.60;60.70;;;;;;4995626;28;20023;-70
2021/03/23 12:07:57;;;;;;;9.23;5.20;;;11.30;66.10;;;;;;4998701;28;20030;-72
2021/03/23 12:10:30;;;;;;;8.30;5.40;;;12.00;62.30;;;;;;5000404;28;20035;-72
2021/03/23 12:13:35;;;;;;;12.57;9.23;;;12.80;57.70;;;;;;5001285;28;20006;-72
2021/03/23 12:16:21;;;;;;;9.13;6.05;;;;;;;;;;5000283;28;20061;-70
2021/03/23 12:18:57;;;;;;;18.17;9.38;;;12.80;56.20;;;;;;4999360;28;20034;-72
2021/03/23 12:21:26;;;;;;;23.48;12.20;;;12.40;53.30;;;;;;4998510;28;20026;-72
2021/03/23 12:23:52;;;;;;;12.15;6.72;;;12.90;56.30;;;;;;4996123;28;20026;-72
2021/03/23 12:26:19;;;;;;;17.77;10.35;;;13.10;54.90;;;;;;4996193;28;20489;-71
2021/03/23 12:28:54;;;;;;;9.88;5.50;;;13.10;55.90;;;;;;4999543;28;20101;-72
2021/03/23 12:31:20;;;;;;;14.90;8.45;;;13.30;56.90;;;;;;5002258;28;20026;-71
2021/03/23 12:33:46;;;;;;;6.25;4.20;;;13.60;55.00;;;;;;5003558;28;20030;-72
2021/03/23 12:36:14;;;;;;;5.57;4.30;;;13.30;53.20;;;;;;5003502;28;20022;-72
2021/03/23 12:38:43;;;;;;;6.03;4.30;;;13.70;55.20;;;;;;5005132;28;20445;-72
2021/03/23 12:41:15;;;;;;;6.22;4.13;;;13.40;51.60;;;;;;5005907;28;20022;-71
2021/03/23 12:43:42;;;;;;;17.20;9.15;;;13.50;52.90;;;;;;5006097;28;20090;-71
2021/03/23 12:46:09;;;;;;;15.43;8.25;;;13.80;54.70;;;;;;5005724;28;20101;-72
2021/03/23 12:48:37;;;;;;;8.00;5.53;;;14.10;54.50;;;;;;5004139;28;20045;-71
2021/03/23 12:51:03;;;;;;;6.53;4.45;;;13.90;55.10;;;;;;5006550;28;20009;-72
2021/03/23 12:53:31;;;;;;;7.70;5.20;;;14.40;50.80;;;;;;5003093;28;20046;-70
2021/03/23 12:55:57;;;;;;;9.13;5.40;;;14.20;51.90;;;;;;5001776;28;20155;-71
2021/03/23 12:58:31;;;;;;;28.27;16.05;;;13.90;52.50;;;;;;5004396;28;20046;-71
2021/03/23 13:00:57;;;;;;;7.90;5.25;;;12.80;51.00;;;;;;5003215;28;20125;-72
2021/03/23 13:03:23;;;;;;;12.75;8.00;;;13.10;56.60;;;;;;5001346;28;20089;-72
2021/03/23 13:05:52;;;;;;;13.80;8.98;;;13.00;55.20;;;;;;5001497;28;20030;-71
2021/03/23 13:08:30;;;;;;;30.08;18.73;;;12.50;55.20;;;;;;5003276;28;20007;-72